Time;durP1;ratioP1;P1;durP2;ratioP2;P2;SDS_P1;SDS_P2;PMS_P1;PMS_P2;Temp;Humidity;BMP_temperature;BMP_pressure;BME280_temperature;BME280_humidity;BME280_pressure;Samples;Min_cycle;Max_cycle;Signal;HPM_P1;HPM_P2
2022/10/22 00:01:14;;;;;;;7.47;5.65;;;;;;;;;;10200096;28;20073;-68
2022/10/22 00:06:13;;;;;;;6.82;5.10;;;;;;;;;;10195893;28;20069;-68
2022/10/22 00:11:14;;;;;;;5.20;4.63;;;;;;;;;;10197839;28;20471;-68
2022/10/22 00:16:12;;;;;;;5.38;4.80;;;;;;;;;;10198416;28;20077;-69
2022/10/22 00:21:11;;;;;;;6.18;4.50;;;;;;;;;;10197113;28;20069;-69
2022/10/22 00:26:10;;;;;;;9.40;4.40;;;;;;;;;;10197262;28;20085;-68
2022/10/22 00:31:10;;;;;;;5.35;4.47;;;;;;;;;;10197345;28;20084;-68
2022/10/22 00:36:09;;;;;;;6.65;4.20;;;;;;;;;;10194827;28;20096;-68
2022/10/22 00:41:07;;;;;;;6.20;4.68;;;;;;;;;;10194257;28;20124;-68
2022/10/22 00:46:05;;;;;;;9.52;5.57;;;;;;;;;;10196261;28;20088;-69
2022/10/22 00:51:07;;;;;;;6.72;5.03;;;;;;;;;;10198794;28;20114;-69
2022/10/22 00:56:06;;;;;;;7.90;5.05;;;;;;;;;;10194446;28;20096;-68
2022/10/22 01:01:05;;;;;;;8.40;4.82;;;;;;;;;;10197638;28;20069;-69
2022/10/22 01:06:06;;;;;;;6.95;4.30;;;;;;;;;;10194917;28;20061;-68
2022/10/22 01:11:08;;;;;;;7.43;5.25;;;;;;;;;;10193043;28;20476;-69
2022/10/22 01:16:10;;;;;;;7.63;5.07;;;;;;;;;;10193446;28;20072;-67
2022/10/22 01:21:14;;;;;;;8.75;4.78;;;;;;;;;;10195271;28;20073;-69
2022/10/22 01:26:16;;;;;;;5.35;4.40;;;;;;;;;;10193032;28;20081;-68
2022/10/22 01:31:17;;;;;;;9.02;4.53;;;;;;;;;;10192844;28;20065;-68
2022/10/22 01:36:17;;;;;;;8.18;5.18;;;;;;;;;;10202586;28;20092;-68
2022/10/22 01:41:15;;;;;;;6.80;4.53;;;;;;;;;;10196624;28;20108;-68
2022/10/22 01:46:14;;;;;;;6.45;4.82;;;;;;;;;;10194539;28;20061;-68
2022/10/22 01:51:25;;;;;;;5.72;5.07;;;;;;;;;;10198406;28;20092;-68
2022/10/22 01:56:29;;;;;;;5.82;4.88;;;;;;;;;;10192869;28;20503;-69
2022/10/22 02:01:32;;;;;;;6.40;4.40;;;;;;;;;;10212727;28;20087;-68
2022/10/22 02:06:32;;;;;;;5.63;4.78;;;;;;;;;;10197072;28;20058;-69
2022/10/22 02:11:30;;;;;;;4.63;4.15;;;;;;;;;;10203402;28;20073;-69
2022/10/22 02:16:31;;;;;;;11.48;7.20;;;;;;;;;;10200648;28;20038;-69
2022/10/22 02:21:30;;;;;;;9.63;7.38;;;;;;;;;;10205081;28;20080;-69
2022/10/22 02:26:32;;;;;;;9.80;5.60;;;;;;;;;;10200610;28;20070;-69
2022/10/22 02:31:32;;;;;;;8.10;5.38;;;;;;;;;;10201826;28;20076;-69
2022/10/22 02:36:31;;;;;;;7.43;5.70;;;;;;;;;;10199472;28;20038;-69
2022/10/22 02:41:30;;;;;;;8.75;7.20;;;;;;;;;;10198110;28;20118;-69
2022/10/22 02:46:29;;;;;;;11.68;5.70;;;;;;;;;;10201022;28;20072;-69
2022/10/22 02:51:27;;;;;;;6.35;5.65;;;;;;;;;;10199576;28;20085;-69
2022/10/22 02:56:26;;;;;;;8.30;4.35;;;;;;;;;;10203733;28;20639;-69
2022/10/22 03:01:25;;;;;;;5.35;4.47;;;;;;;;;;10199256;28;20062;-69
2022/10/22 03:06:24;;;;;;;4.78;4.38;;;;;;;;;;10197873;28;20057;-69
2022/10/22 03:11:27;;;;;;;6.10;4.45;;;;;;;;;;10198914;28;20081;-69
2022/10/22 03:16:26;;;;;;;6.68;4.63;;;;;;;;;;10197449;28;20404;-69
2022/10/22 03:21:28;;;;;;;8.13;4.45;;;;;;;;;;10195904;28;20452;-69
2022/10/22 03:26:26;;;;;;;11.05;4.57;;;;;;;;;;10196852;28;20037;-69
2022/10/22 03:31:24;;;;;;;5.38;4.88;;;;;;;;;;10198084;28;20496;-68
2022/10/22 03:36:24;;;;;;;7.78;5.30;;;;;;;;;;10197276;28;20050;-68
2022/10/22 03:41:22;;;;;;;6.10;3.63;;;;;;;;;;10196754;28;20089;-69
2022/10/22 03:46:21;;;;;;;7.30;5.03;;;;;;;;;;10195627;28;20530;-68
2022/10/22 03:51:19;;;;;;;5.32;4.45;;;;;;;;;;10198189;28;20112;-69
2022/10/22 03:56:20;;;;;;;4.68;4.28;;;;;;;;;;10197571;28;20073;-68
2022/10/22 04:01:18;;;;;;;7.05;5.45;;;;;;;;;;10199947;28;20419;-69
2022/10/22 04:06:17;;;;;;;8.57;5.53;;;;;;;;;;10202910;28;20077;-68
2022/10/22 04:11:15;;;;;;;8.57;5.03;;;;;;;;;;10198302;28;20507;-69
2022/10/22 04:16:17;;;;;;;8.95;6.00;;;;;;;;;;10196821;28;20065;-68
2022/10/22 04:21:16;;;;;;;5.85;5.22;;;;;;;;;;10203449;28;20072;-69
2022/10/22 04:26:15;;;;;;;6.90;6.15;;;;;;;;;;10198768;28;20530;-68
2022/10/22 04:31:16;;;;;;;7.57;5.28;;;;;;;;;;10198667;28;20073;-68
2022/10/22 04:36:15;;;;;;;10.88;8.27;;;;;;;;;;10202315;28;20474;-68
2022/10/22 04:41:14;;;;;;;10.50;4.90;;;;;;;;;;10196703;28;20061;-69
2022/10/22 04:46:13;;;;;;;7.30;4.85;;;;;;;;;;10188668;28;20073;-69
2022/10/22 04:51:13;;;;;;;8.43;6.78;;;;;;;;;;10190452;28;20084;-68
2022/10/22 04:56:15;;;;;;;11.23;9.95;;;;;;;;;;10192668;28;20470;-68
2022/10/22 05:01:14;;;;;;;7.85;7.05;;;;;;;;;;10192055;28;20065;-69
2022/10/22 05:06:14;;;;;;;5.78;4.20;;;;;;;;;;10210493;28;20077;-68
2022/10/22 05:11:13;;;;;;;10.85;5.10;;;;;;;;;;10196791;28;20069;-68
2022/10/22 05:16:11;;;;;;;5.05;4.55;;;;;;;;;;10199908;28;20076;-68
2022/10/22 05:21:10;;;;;;;9.95;5.13;;;;;;;;;;10197367;28;20064;-68
2022/10/22 05:26:11;;;;;;;7.28;6.53;;;;;;;;;;10194778;28;20099;-67
2022/10/22 05:31:11;;;;;;;7.47;5.65;;;;;;;;;;10213212;28;20061;-66
2022/10/22 05:36:10;;;;;;;9.45;5.65;;;;;;;;;;10198514;28;20110;-68
2022/10/22 05:41:11;;;;;;;8.10;4.75;;;;;;;;;;10197598;28;20069;-67
2022/10/22 05:46:10;;;;;;;7.70;5.53;;;;;;;;;;10208186;28;20766;-68
2022/10/22 05:51:09;;;;;;;7.85;4.32;;;;;;;;;;10215917;28;20626;-68
2022/10/22 05:56:08;;;;;;;9.88;4.97;;;;;;;;;;10211110;28;20081;-68
2022/10/22 06:01:09;;;;;;;8.75;5.28;;;;;;;;;;10200860;28;20077;-68
2022/10/22 06:06:14;;;;;;;9.38;7.55;;;;;;;;;;10200015;28;20118;-68
2022/10/22 06:11:13;;;;;;;28.67;20.52;;;;;;;;;;10201597;28;20073;-68
2022/10/22 06:16:12;;;;;;;7.97;4.70;;;;;;;;;;10199541;28;20095;-68
2022/10/22 06:21:12;;;;;;;5.32;4.75;;;;;;;;;;10202008;28;20503;-67
2022/10/22 06:26:10;;;;;;;6.65;6.05;;;;;;;;;;10200119;28;20068;-68
2022/10/22 06:31:09;;;;;;;6.10;5.03;;;;;;;;;;10202070;28;20084;-69
2022/10/22 06:36:10;;;;;;;4.70;4.22;;;;;;;;;;10199540;28;20076;-68
2022/10/22 06:41:09;;;;;;;6.75;4.30;;;;;;;;;;10204975;28;20042;-69
2022/10/22 06:46:09;;;;;;;6.18;3.97;;;;;;;;;;10202015;28;20077;-69
2022/10/22 06:51:15;;;;;;;6.68;4.95;;;;;;;;;;10196082;28;20077;-69
2022/10/22 06:56:15;;;;;;;9.65;4.40;;;;;;;;;;10201832;28;20092;-69
2022/10/22 07:01:14;;;;;;;4.72;4.15;;;;;;;;;;10206941;28;20080;-69
2022/10/22 07:06:13;;;;;;;5.60;4.57;;;;;;;;;;10202432;28;20065;-68
2022/10/22 07:11:14;;;;;;;5.65;4.50;;;;;;;;;;10200276;28;20069;-68
2022/10/22 07:16:12;;;;;;;7.80;4.60;;;;;;;;;;10206798;28;20081;-69
2022/10/22 07:21:11;;;;;;;10.65;5.25;;;;;;;;;;10214271;28;20069;-69
2022/10/22 07:26:11;;;;;;;11.38;4.45;;;;;;;;;;10205370;28;20069;-69
2022/10/22 07:31:12;;;;;;;12.02;4.72;;;;;;;;;;10201461;28;20076;-70
2022/10/22 07:36:16;;;;;;;5.07;4.28;;;;;;;;;;10227042;28;20080;-70
2022/10/22 07:41:14;;;;;;;6.47;4.15;;;;;;;;;;10227065;28;20065;-69
2022/10/22 07:46:14;;;;;;;6.15;4.78;;;;;;;;;;10235418;28;20069;-69
2022/10/22 07:51:15;;;;;;;11.77;6.82;;;;;;;;;;10235690;28;20494;-71
2022/10/22 07:56:13;;;;;;;16.70;6.85;;;;;;;;;;10234832;28;20068;-70
2022/10/22 08:01:12;;;;;;;12.20;7.85;;;;;;;;;;10234631;28;20076;-69
2022/10/22 08:06:12;;;;;;;10.30;6.95;;;;;;;;;;10234841;28;20084;-69
2022/10/22 08:11:11;;;;;;;11.82;7.85;;;;;;;;;;10233238;28;20072;-69
2022/10/22 08:16:09;;;;;;;18.52;10.07;;;;;;;;;;10227590;28;20183;-70
2022/10/22 08:21:08;;;;;;;9.48;7.63;;;;;;;;;;10228836;28;20069;-70
2022/10/22 08:26:07;;;;;;;6.18;5.60;;;;;;;;;;10225804;28;20088;-69
2022/10/22 08:31:06;;;;;;;10.60;6.10;;;;;;;;;;10226623;28;20095;-69
2022/10/22 08:36:04;;;;;;;9.25;7.07;;;;;;;;;;10227453;28;20123;-70
2022/10/22 08:41:07;;;;;;;10.82;6.82;;;;;;;;;;10231930;28;20069;-69
2022/10/22 08:46:14;;;;;;;8.50;5.57;;;;;;;;;;10226410;28;20081;-70
2022/10/22 08:51:16;;;;;;;12.13;6.78;;;;;;;;;;10231699;28;20057;-70
2022/10/22 08:56:14;;;;;;;11.82;6.75;;;;;;;;;;10225747;28;20068;-69
2022/10/22 09:01:15;;;;;;;12.55;7.07;;;;;;;;;;10223686;28;20068;-69
2022/10/22 09:06:14;;;;;;;8.38;6.10;;;;;;;;;;10222274;28;20057;-68
2022/10/22 09:11:15;;;;;;;8.82;5.88;;;;;;;;;;10209015;28;20042;-69
2022/10/22 09:16:17;;;;;;;10.75;7.32;;;;;;;;;;10194241;28;20077;-70
2022/10/22 09:21:19;;;;;;;10.55;8.18;;;;;;;;;;10205353;28;20447;-69
2022/10/22 09:26:17;;;;;;;7.68;6.50;;;;;;;;;;10202803;28;20084;-70
2022/10/22 09:31:17;;;;;;;9.90;6.68;;;;;;;;;;10199150;28;20065;-69
2022/10/22 09:36:16;;;;;;;13.10;6.85;;;;;;;;;;10210059;28;20053;-70
2022/10/22 09:41:15;;;;;;;10.43;6.95;;;;;;;;;;10204912;28;20061;-68
2022/10/22 09:46:16;;;;;;;11.25;7.00;;;;;;;;;;10192557;28;20489;-68
2022/10/22 09:51:18;;;;;;;9.10;7.10;;;;;;;;;;10228968;28;20046;-67
2022/10/22 09:56:18;;;;;;;14.18;9.57;;;;;;;;;;10233854;28;20053;-68
2022/10/22 10:01:18;;;;;;;17.48;14.73;;;;;;;;;;10232437;28;20818;-71
2022/10/22 10:06:19;;;;;;;11.77;7.35;;;;;;;;;;10193221;28;20092;-68
2022/10/22 10:11:23;;;;;;;9.30;7.65;;;;;;;;;;10202368;28;20089;-69
2022/10/22 10:16:30;;;;;;;10.32;7.32;;;;;;;;;;10228505;28;20100;-69
2022/10/22 10:21:37;;;;;;;11.70;7.43;;;;;;;;;;10232829;28;20045;-69
2022/10/22 10:26:37;;;;;;;10.88;7.13;;;;;;;;;;10210198;28;20091;-69
2022/10/22 10:31:39;;;;;;;12.05;8.43;;;;;;;;;;10230895;28;20061;-67
2022/10/22 10:36:44;;;;;;;10.85;8.57;;;;;;;;;;10211840;28;20065;-68
2022/10/22 10:41:50;;;;;;;17.02;11.35;;;;;;;;;;10203829;28;20092;-68
2022/10/22 10:46:54;;;;;;;12.93;8.77;;;;;;;;;;10234842;28;20076;-68
2022/10/22 10:51:58;;;;;;;18.80;10.35;;;;;;;;;;10237764;28;20072;-67
2022/10/22 10:56:57;;;;;;;8.88;7.72;;;;;;;;;;10212720;28;20073;-68
2022/10/22 11:02:10;;;;;;;17.40;7.68;;;;;;;;;;10228534;28;20073;-67
2022/10/22 11:07:12;;;;;;;8.98;6.32;;;;;;;;;;10205334;28;20093;-68
2022/10/22 11:12:33;;;;;;;8.57;5.88;;;;;;;;;;10204406;28;20069;-68
2022/10/22 11:17:36;;;;;;;12.00;6.78;;;;;;;;;;10208669;28;20070;-68
2022/10/22 11:22:36;;;;;;;15.05;9.27;;;;;;;;;;10204024;28;20095;-68
2022/10/22 11:27:38;;;;;;;8.45;6.53;;;;;;;;;;10218797;28;20099;-67
2022/10/22 11:32:38;;;;;;;11.27;7.55;;;;;;;;;;10213374;28;20081;-67
2022/10/22 11:37:38;;;;;;;9.00;6.13;;;;;;;;;;10216427;28;20038;-67
2022/10/22 11:42:38;;;;;;;11.00;8.25;;;;;;;;;;10210224;28;20080;-68
2022/10/22 11:47:51;;;;;;;9.68;6.75;;;;;;;;;;10209112;28;20479;-69
2022/10/22 11:52:59;;;;;;;8.82;7.13;;;;;;;;;;10220660;28;20089;-68
2022/10/22 11:57:59;;;;;;;12.85;6.80;;;;;;;;;;10230938;28;20073;-68
2022/10/22 12:03:02;;;;;;;11.15;7.00;;;;;;;;;;10227639;28;20092;-68
2022/10/22 12:08:03;;;;;;;9.07;7.80;;;;;;;;;;10229206;28;20513;-68
2022/10/22 12:13:03;;;;;;;10.80;7.30;;;;;;;;;;10217077;28;20077;-68
2022/10/22 12:18:03;;;;;;;11.82;8.10;;;;;;;;;;10213814;28;20072;-68
2022/10/22 12:23:04;;;;;;;7.60;6.85;;;;;;;;;;10214979;28;20059;-68
2022/10/22 12:28:02;;;;;;;15.30;7.53;;;;;;;;;;10226232;28;20636;-68
2022/10/22 12:33:01;;;;;;;11.70;6.88;;;;;;;;;;10222321;28;20065;-68
2022/10/22 12:38:01;;;;;;;14.73;5.93;;;;;;;;;;10218088;28;20080;-69
2022/10/22 12:43:01;;;;;;;11.88;7.05;;;;;;;;;;10227659;28;20060;-68
2022/10/22 12:48:01;;;;;;;16.00;10.93;;;;;;;;;;10227567;28;20084;-69
2022/10/22 12:53:00;;;;;;;11.30;6.43;;;;;;;;;;10227278;28;20072;-68
2022/10/22 12:57:58;;;;;;;11.13;5.78;;;;;;;;;;10221504;28;20523;-68
2022/10/22 13:02:59;;;;;;;12.70;7.57;;;;;;;;;;10222205;28;20603;-68
2022/10/22 13:08:02;;;;;;;15.77;11.90;;;;;;;;;;10223571;28;20077;-69
2022/10/22 13:13:02;;;;;;;9.80;6.70;;;;;;;;;;10226258;28;20462;-68
2022/10/22 13:18:15;;;;;;;12.52;6.18;;;;;;;;;;10226311;28;20108;-69
2022/10/22 13:23:18;;;;;;;10.48;5.95;;;;;;;;;;10207553;28;20187;-68
2022/10/22 13:28:19;;;;;;;9.15;6.45;;;;;;;;;;10210953;28;20117;-68
2022/10/22 13:33:23;;;;;;;20.58;10.15;;;;;;;;;;10218398;28;20076;-68
2022/10/22 13:38:23;;;;;;;15.93;10.90;;;;;;;;;;10216211;28;20223;-67
2022/10/22 13:43:21;;;;;;;13.95;8.20;;;;;;;;;;10217592;28;20578;-69
2022/10/22 13:48:22;;;;;;;16.00;7.32;;;;;;;;;;10219523;28;20072;-68
2022/10/22 13:53:21;;;;;;;11.63;9.23;;;;;;;;;;10192342;28;20074;-67
2022/10/22 13:58:22;;;;;;;13.38;9.23;;;;;;;;;;10202771;28;20073;-69
2022/10/22 14:03:23;;;;;;;11.70;9.75;;;;;;;;;;10198540;28;20077;-68
2022/10/22 14:08:23;;;;;;;9.45;6.50;;;;;;;;;;10202845;28;20472;-69
2022/10/22 14:13:21;;;;;;;12.73;6.75;;;;;;;;;;10215006;28;20069;-66
2022/10/22 14:18:24;;;;;;;13.93;8.85;;;;;;;;;;10201786;28;20108;-68
2022/10/22 14:23:25;;;;;;;19.70;10.18;;;;;;;;;;10204268;28;20494;-67
2022/10/22 14:28:23;;;;;;;23.75;14.75;;;;;;;;;;10205254;28;20083;-67
2022/10/22 14:33:22;;;;;;;42.42;34.42;;;;;;;;;;10209136;28;20474;-67
2022/10/22 14:38:30;;;;;;;30.13;24.88;;;;;;;;;;10212294;28;20080;-67
2022/10/22 14:43:29;;;;;;;94.50;55.28;;;;;;;;;;10209442;28;20076;-68
2022/10/22 14:48:28;;;;;;;53.35;34.03;;;;;;;;;;10207983;28;20081;-68
2022/10/22 14:53:26;;;;;;;24.33;19.25;;;;;;;;;;10207298;28;20076;-70
2022/10/22 14:58:27;;;;;;;22.40;15.60;;;;;;;;;;10235858;28;20421;-68
2022/10/22 15:03:30;;;;;;;24.08;15.50;;;;;;;;;;10238652;28;20545;-69
2022/10/22 15:08:28;;;;;;;27.25;17.20;;;;;;;;;;10236513;28;20076;-67
2022/10/22 15:13:29;;;;;;;23.42;17.33;;;;;;;;;;10210583;28;20049;-68
2022/10/22 15:18:29;;;;;;;22.77;20.33;;;;;;;;;;10236292;28;20100;-68
2022/10/22 15:23:28;;;;;;;59.05;46.42;;;;;;;;;;10223457;28;20191;-66
2022/10/22 15:28:28;;;;;;;51.75;39.72;;;;;;;;;;10209373;28;20068;-67
2022/10/22 15:33:27;;;;;;;50.83;32.25;;;;;;;;;;10209388;28;20045;-67
2022/10/22 15:38:27;;;;;;;58.53;43.83;;;;;;;;;;10209770;28;20077;-68
2022/10/22 15:43:32;;;;;;;49.92;36.25;;;;;;;;;;10209721;28;20498;-67
2022/10/22 15:48:30;;;;;;;51.13;36.78;;;;;;;;;;10208548;28;20088;-67
2022/10/22 15:53:28;;;;;;;57.78;40.78;;;;;;;;;;10208548;28;20072;-68
2022/10/22 15:58:26;;;;;;;67.97;46.20;;;;;;;;;;10237568;28;20080;-68
2022/10/22 16:03:26;;;;;;;59.17;39.92;;;;;;;;;;10235907;28;20041;-68
2022/10/22 16:08:24;;;;;;;38.65;24.85;;;;;;;;;;10236139;28;20083;-67
2022/10/22 16:13:23;;;;;;;46.97;29.33;;;;;;;;;;10208714;28;20083;-65
2022/10/22 16:18:22;;;;;;;39.13;21.27;;;;;;;;;;10208509;28;20077;-66
2022/10/22 16:23:22;;;;;;;29.40;17.20;;;;;;;;;;10208285;28;20064;-66
2022/10/22 16:28:20;;;;;;;23.63;14.10;;;;;;;;;;10207584;28;20138;-68
2022/10/22 16:33:19;;;;;;;35.42;19.10;;;;;;;;;;10234849;28;20184;-68
2022/10/22 16:38:17;;;;;;;31.52;18.10;;;;;;;;;;10235323;28;20045;-68
2022/10/22 16:43:17;;;;;;;9.88;8.38;;;;;;;;;;10236389;28;20081;-68
2022/10/22 16:48:15;;;;;;;12.10;7.38;;;;;;;;;;10207329;28;20871;-68
2022/10/22 16:53:14;;;;;;;14.30;7.03;;;;;;;;;;10206742;28;20049;-68
2022/10/22 16:58:12;;;;;;;12.75;7.82;;;;;;;;;;10206515;28;20083;-68
2022/10/22 17:03:12;;;;;;;12.70;6.78;;;;;;;;;;10206428;28;20419;-68
2022/10/22 17:08:10;;;;;;;12.02;6.40;;;;;;;;;;10204953;28;20069;-68
2022/10/22 17:13:08;;;;;;;12.85;8.07;;;;;;;;;;10205652;28;20514;-68
2022/10/22 17:18:07;;;;;;;10.32;7.82;;;;;;;;;;10205672;28;20076;-68
2022/10/22 17:23:06;;;;;;;16.30;8.95;;;;;;;;;;10206308;28;20459;-68
2022/10/22 17:28:04;;;;;;;12.68;8.93;;;;;;;;;;10205661;28;20475;-69
2022/10/22 17:33:03;;;;;;;14.80;8.82;;;;;;;;;;10234273;28;20415;-69
2022/10/22 17:38:01;;;;;;;15.50;12.13;;;;;;;;;;10235052;28;20491;-68
2022/10/22 17:43:00;;;;;;;28.35;22.33;;;;;;;;;;10227291;28;20072;-69
2022/10/22 17:47:59;;;;;;;14.55;10.13;;;;;;;;;;10212065;28;20499;-69
2022/10/22 17:52:57;;;;;;;12.05;8.85;;;;;;;;;;10212915;28;20085;-67
2022/10/22 17:57:55;;;;;;;11.38;8.32;;;;;;;;;;10209715;28;20045;-68
2022/10/22 18:02:55;;;;;;;17.48;9.60;;;;;;;;;;10208815;28;20065;-67
2022/10/22 18:07:54;;;;;;;9.38;7.40;;;;;;;;;;10200647;28;20077;-67
2022/10/22 18:12:52;;;;;;;13.77;9.07;;;;;;;;;;10200730;28;20045;-69
2022/10/22 18:17:50;;;;;;;12.73;10.30;;;;;;;;;;10208687;28;20076;-69
2022/10/22 18:22:50;;;;;;;13.45;10.77;;;;;;;;;;10204402;28;20068;-69
2022/10/22 18:27:48;;;;;;;14.93;10.80;;;;;;;;;;10203119;28;20078;-69
2022/10/22 18:32:46;;;;;;;10.13;8.40;;;;;;;;;;10213108;28;20066;-68
2022/10/22 18:37:44;;;;;;;13.35;9.82;;;;;;;;;;10203238;28;20076;-68
2022/10/22 18:42:44;;;;;;;11.60;9.50;;;;;;;;;;10203574;28;20457;-69
2022/10/22 18:47:43;;;;;;;10.77;9.43;;;;;;;;;;10223052;28;20080;-68
2022/10/22 18:52:41;;;;;;;14.30;10.95;;;;;;;;;;10223843;28;20470;-69
2022/10/22 18:57:40;;;;;;;17.50;13.00;;;;;;;;;;10209238;28;20061;-69
2022/10/22 19:02:41;;;;;;;27.05;24.35;;;;;;;;;;10209918;28;20395;-69
2022/10/22 19:07:40;;;;;;;13.77;11.18;;;;;;;;;;10207568;28;20072;-69
2022/10/22 19:12:38;;;;;;;16.30;9.90;;;;;;;;;;10218519;28;20164;-71
2022/10/22 19:17:37;;;;;;;17.27;10.82;;;;;;;;;;10208474;28;20072;-69
2022/10/22 19:22:36;;;;;;;14.70;10.25;;;;;;;;;;10222054;28;20077;-69
2022/10/22 19:27:35;;;;;;;12.65;10.65;;;;;;;;;;10219759;28;20128;-69
2022/10/22 19:32:33;;;;;;;15.43;12.57;;;;;;;;;;10214539;28;20471;-68
2022/10/22 19:37:31;;;;;;;15.90;11.15;;;;;;;;;;10203803;28;20064;-69
2022/10/22 19:42:31;;;;;;;14.93;10.32;;;;;;;;;;10202811;28;20061;-69
2022/10/22 19:47:29;;;;;;;14.27;11.73;;;;;;;;;;10213447;28;20053;-69
2022/10/22 19:52:27;;;;;;;22.67;10.57;;;;;;;;;;10208783;28;20101;-69
2022/10/22 19:57:26;;;;;;;20.67;11.20;;;;;;;;;;10201786;28;20516;-69
2022/10/22 20:02:26;;;;;;;19.05;10.68;;;;;;;;;;10206490;28;20089;-69
2022/10/22 20:07:24;;;;;;;12.68;9.43;;;;;;;;;;10208191;28;20108;-69
2022/10/22 20:12:23;;;;;;;12.23;10.10;;;;;;;;;;10202407;28;20076;-69
2022/10/22 20:17:21;;;;;;;10.88;9.70;;;;;;;;;;10197105;28;20077;-69
2022/10/22 20:22:21;;;;;;;14.80;11.38;;;;;;;;;;10196172;28;20492;-69
2022/10/22 20:27:20;;;;;;;14.35;10.23;;;;;;;;;;10201323;28;20100;-69
2022/10/22 20:32:18;;;;;;;15.68;10.82;;;;;;;;;;10207366;28;20123;-69
2022/10/22 20:37:16;;;;;;;14.52;9.82;;;;;;;;;;10203606;28;20061;-69
2022/10/22 20:42:16;;;;;;;17.70;10.02;;;;;;;;;;10205693;28;20076;-69
2022/10/22 20:47:14;;;;;;;14.80;9.60;;;;;;;;;;10198418;28;20080;-69
2022/10/22 20:52:12;;;;;;;16.27;10.00;;;;;;;;;;10196664;28;20537;-69
2022/10/22 20:57:12;;;;;;;16.58;10.23;;;;;;;;;;10193822;28;20038;-70
2022/10/22 21:02:12;;;;;;;13.65;9.80;;;;;;;;;;10192853;28;20085;-69
2022/10/22 21:07:10;;;;;;;16.42;10.07;;;;;;;;;;10200957;28;20072;-69
2022/10/22 21:12:08;;;;;;;16.55;11.65;;;;;;;;;;10202500;28;21020;-69
2022/10/22 21:17:07;;;;;;;14.88;10.32;;;;;;;;;;10205196;28;20069;-69
2022/10/22 21:22:07;;;;;;;13.50;9.65;;;;;;;;;;10205511;28;20073;-69
2022/10/22 21:27:06;;;;;;;18.35;9.13;;;;;;;;;;10204198;28;20045;-70
2022/10/22 21:32:04;;;;;;;13.20;8.65;;;;;;;;;;10203134;28;20072;-69
2022/10/22 21:37:02;;;;;;;13.05;9.70;;;;;;;;;;10203682;28;20448;-68
2022/10/22 21:42:03;;;;;;;16.90;9.95;;;;;;;;;;10234227;28;20446;-71
2022/10/22 21:47:02;;;;;;;12.68;8.82;;;;;;;;;;10233690;28;20049;-69
2022/10/22 21:52:01;;;;;;;14.75;9.50;;;;;;;;;;10233613;28;20088;-69
2022/10/22 21:56:59;;;;;;;12.63;9.70;;;;;;;;;;10205863;28;20046;-68
2022/10/22 22:01:59;;;;;;;15.50;9.10;;;;;;;;;;10204880;28;20073;-68
2022/10/22 22:07:05;;;;;;;;;;;;;;;;;;10205336;28;20072;-68
2022/10/22 22:12:04;;;;;;;14.73;10.40;;;;;;;;;;10202024;28;19969;-69
2022/10/22 22:17:03;;;;;;;13.52;10.32;;;;;;;;;;10205425;28;20041;-69
2022/10/22 22:22:01;;;;;;;17.38;9.10;;;;;;;;;;10205646;28;20050;-69
2022/10/22 22:27:00;;;;;;;14.60;9.80;;;;;;;;;;10209896;28;20503;-68
2022/10/22 22:31:58;;;;;;;12.35;9.70;;;;;;;;;;10239680;28;20100;-69
2022/10/22 22:36:58;;;;;;;12.57;10.25;;;;;;;;;;10239447;28;20076;-69
2022/10/22 22:41:56;;;;;;;11.93;9.32;;;;;;;;;;10212314;28;20076;-68
2022/10/22 22:46:54;;;;;;;19.10;11.00;;;;;;;;;;10210256;28;20077;-68
2022/10/22 22:51:53;;;;;;;16.42;10.25;;;;;;;;;;10237999;28;20077;-68
2022/10/22 22:56:52;;;;;;;14.25;10.68;;;;;;;;;;10239757;28;20051;-68
2022/10/22 23:01:51;;;;;;;15.75;10.52;;;;;;;;;;10200817;28;20080;-69
2022/10/22 23:06:49;;;;;;;14.07;9.38;;;;;;;;;;10208511;28;20054;-68
2022/10/22 23:11:48;;;;;;;18.40;10.18;;;;;;;;;;10210395;28;20393;-68
2022/10/22 23:16:48;;;;;;;14.95;10.15;;;;;;;;;;10235519;28;20069;-69
2022/10/22 23:21:48;;;;;;;12.98;10.35;;;;;;;;;;10225237;28;20581;-69
2022/10/22 23:26:47;;;;;;;15.27;9.68;;;;;;;;;;10212250;28;20073;-69
2022/10/22 23:31:46;;;;;;;16.67;10.13;;;;;;;;;;10235655;28;20085;-69
2022/10/22 23:36:46;;;;;;;15.38;9.98;;;;;;;;;;10237542;28;20053;-69
2022/10/22 23:41:44;;;;;;;14.52;9.88;;;;;;;;;;10212150;28;20073;-69
2022/10/22 23:46:42;;;;;;;13.27;9.75;;;;;;;;;;10208964;28;20050;-69
2022/10/22 23:51:40;;;;;;;17.80;10.65;;;;;;;;;;10208256;28;20482;-69
2022/10/22 23:56:43;;;;;;;12.45;9.88;;;;;;;;;;10211009;28;20069;-69
